Terminal Aerodrome Forecast
Issued by NWS

Home | Current Version | Previous Version | Graphics & Text | Print | Product List | Glossary On
Versions: 1 2 3 4 5 6 7 8 9 10 11 12 13 14 15 16 17 18
493
FTUS43 KMPX 231737
TAFAXN
TAF
KAXN 231737Z 2318/2418 15015G23KT P6SM OVC040
     FM231900 15014KT P6SM VCSH OVC040
     FM232100 14011KT 5SM -SHRA OVC015
     FM232300 13009KT 4SM -SHRA OVC007
     FM240300 09004KT 4SM BR VCSH OVC005
     FM241100 02007KT 6SM BR VCSH OVC010
     FM241200 02008KT P6SM OVC008
     FM241600 01012KT P6SM BKN008=

USA.gov is the U.S. government's official web portal to all federal, state and local government web resources and services.